createdAt,value
2018-04-30T00:00:13.917Z,98368.45
2018-04-30T00:02:42.724Z,98355.05
2018-04-30T00:05:11.424Z,98351.42
2018-04-30T00:07:40.112Z,98358.88
2018-04-30T00:10:08.989Z,98364.55
2018-04-30T00:12:37.766Z,98355.11
2018-04-30T00:15:06.802Z,98357.91
2018-04-30T00:17:35.589Z,98364.20
2018-04-30T00:20:04.980Z,98364.77
2018-04-30T00:22:35.000Z,98359.25
2018-04-30T00:25:03.972Z,98359.38
2018-04-30T00:27:32.792Z,98361.09
2018-04-30T00:30:01.598Z,98364.51
2018-04-30T00:32:30.394Z,98370.64
2018-04-30T00:34:59.162Z,98379.14
2018-04-30T00:37:28.641Z,98385.47
2018-04-30T00:39:57.489Z,98387.73
2018-04-30T00:42:26.281Z,98396.25
2018-04-30T00:44:55.125Z,98396.25
2018-04-30T00:47:24.689Z,98392.09
2018-04-30T00:49:53.929Z,98394.34
2018-04-30T00:52:24.628Z,98402.55
2018-04-30T00:55:01.560Z,98403.63
2018-04-30T00:57:30.232Z,98387.45
2018-04-30T00:59:58.962Z,98383.81
2018-04-30T01:02:27.660Z,98391.23
2018-04-30T01:04:56.447Z,98390.47
2018-04-30T01:07:26.511Z,98396.77
2018-04-30T01:09:55.132Z,98405.36
2018-04-30T01:12:24.113Z,98410.57
2018-04-30T01:14:54.161Z,98399.38
2018-04-30T01:17:23.223Z,98406.58
2018-04-30T01:19:51.899Z,98400.56
2018-04-30T01:22:20.640Z,98399.25
2018-04-30T01:24:49.374Z,98392.76
2018-04-30T01:27:18.072Z,98391.83
2018-04-30T01:29:46.835Z,98393.34
2018-04-30T01:32:15.590Z,98381.83
2018-04-30T01:34:44.112Z,98380.80
2018-04-30T01:37:13.745Z,98387.17
2018-04-30T01:39:42.334Z,98390.19
2018-04-30T01:42:11.086Z,98387.41
2018-04-30T01:44:40.303Z,98382.98
2018-04-30T01:47:10.144Z,98382.14
2018-04-30T01:49:39.194Z,98380.22
2018-04-30T01:52:08.060Z,98380.63
2018-04-30T01:54:36.795Z,98377.13
2018-04-30T01:57:05.707Z,98379.47
2018-04-30T01:59:34.378Z,98369.86
2018-04-30T02:02:03.000Z,98372.59
2018-04-30T02:04:31.589Z,98369.92
2018-04-30T02:07:00.429Z,98371.92
2018-04-30T02:09:29.193Z,98378.10
2018-04-30T02:11:58.764Z,98375.84
2018-04-30T02:14:27.627Z,98373.17
2018-04-30T02:16:57.173Z,98369.21
2018-04-30T02:19:27.332Z,98370.20
2018-04-30T02:21:56.197Z,98373.63
2018-04-30T02:24:24.837Z,98371.85
2018-04-30T02:26:53.439Z,98373.18
2018-04-30T02:29:22.167Z,98372.28
2018-04-30T02:31:50.842Z,98374.06
2018-04-30T02:34:20.424Z,98383.25
2018-04-30T02:36:49.107Z,98375.48
2018-04-30T02:39:17.863Z,98385.25
2018-04-30T02:41:46.612Z,98386.33
2018-04-30T02:44:15.379Z,98377.95
2018-04-30T02:46:45.630Z,98379.80
2018-04-30T02:49:16.135Z,98386.45
2018-04-30T02:51:44.714Z,98391.63
2018-04-30T02:54:14.985Z,98387.20
2018-04-30T02:56:43.870Z,98376.75
2018-04-30T02:59:12.693Z,98379.03
2018-04-30T03:01:41.483Z,98371.90
2018-04-30T03:04:10.131Z,98376.46
2018-04-30T03:06:38.929Z,98372.19
2018-04-30T03:09:07.523Z,98372.31
2018-04-30T03:11:36.286Z,98376.07
2018-04-30T03:14:04.880Z,98368.97
2018-04-30T03:16:33.627Z,98370.80
2018-04-30T03:19:04.643Z,98371.99
2018-04-30T03:21:33.526Z,98371.31
2018-04-30T03:24:02.337Z,98374.13
2018-04-30T03:26:31.018Z,98383.16
2018-04-30T03:28:59.765Z,98380.91
2018-04-30T03:31:28.565Z,98391.09
2018-04-30T03:33:57.378Z,98391.83
2018-04-30T03:36:26.138Z,98400.75
2018-04-30T03:38:55.711Z,98404.24
2018-04-30T03:41:24.400Z,98404.79
2018-04-30T03:43:53.224Z,98409.00
2018-04-30T03:46:21.884Z,98413.55
2018-04-30T03:48:51.305Z,98418.22
2018-04-30T03:51:21.616Z,98425.09
2018-04-30T03:53:51.839Z,98421.09
2018-04-30T03:56:21.153Z,98418.43
2018-04-30T03:58:49.981Z,98412.66
2018-04-30T04:01:37.297Z,98418.33
2018-04-30T04:04:23.902Z,98413.81
2018-04-30T04:06:53.509Z,98414.45
2018-04-30T04:09:22.238Z,98410.27
2018-04-30T04:11:50.875Z,98413.39
2018-04-30T04:14:19.766Z,98419.50
2018-04-30T04:16:48.553Z,98423.64
2018-04-30T04:19:18.211Z,98421.11
2018-04-30T04:21:47.623Z,98418.78
2018-04-30T04:24:16.294Z,98421.94
2018-04-30T04:26:45.883Z,98424.61
2018-04-30T04:29:14.530Z,98426.89
2018-04-30T04:31:44.212Z,98431.43
2018-04-30T04:34:13.608Z,98434.45
2018-04-30T04:36:42.426Z,98440.95
2018-04-30T04:39:11.134Z,98438.05
2018-04-30T04:41:39.976Z,98431.52
2018-04-30T04:44:08.865Z,98435.16
2018-04-30T04:46:37.725Z,98437.48
2018-04-30T04:49:07.232Z,98438.18
2018-04-30T04:51:36.869Z,98431.14
2018-04-30T04:54:05.833Z,98439.34
2018-04-30T04:56:34.539Z,98440.94
2018-04-30T04:59:03.360Z,98440.77
2018-04-30T05:01:31.872Z,98445.55
2018-04-30T05:04:00.725Z,98443.12
2018-04-30T05:06:29.742Z,98445.66
2018-04-30T05:08:59.307Z,98441.83
2018-04-30T05:11:28.024Z,98449.83
2018-04-30T05:13:56.929Z,98453.09
2018-04-30T05:16:26.159Z,98444.80
2018-04-30T05:18:55.066Z,98462.37
2018-04-30T05:21:24.383Z,98466.03
2018-04-30T05:23:53.767Z,98463.78
2018-04-30T05:26:23.358Z,98465.50
2018-04-30T05:28:52.137Z,98471.62
2018-04-30T05:31:20.889Z,98474.34
2018-04-30T05:33:49.679Z,98474.73
2018-04-30T05:36:18.793Z,98472.64
2018-04-30T05:38:47.627Z,98483.30
2018-04-30T05:41:16.514Z,98486.13
2018-04-30T05:43:45.295Z,98482.45
2018-04-30T05:46:14.136Z,98485.00
2018-04-30T05:48:42.729Z,98489.26
2018-04-30T05:51:12.185Z,98485.95
2018-04-30T05:53:41.855Z,98484.80
2018-04-30T05:56:11.613Z,98485.08
2018-04-30T05:58:40.799Z,98489.05
2018-04-30T06:01:10.356Z,98492.94
2018-04-30T06:03:39.179Z,98498.84
2018-04-30T06:06:08.594Z,98496.80
2018-04-30T06:08:38.182Z,98502.58
2018-04-30T06:11:08.185Z,98502.09
2018-04-30T06:13:36.907Z,98502.97
2018-04-30T06:16:05.578Z,98510.47
2018-04-30T06:18:34.481Z,98518.13
2018-04-30T06:21:04.545Z,98516.84
2018-04-30T06:23:33.891Z,98522.54
2018-04-30T06:26:02.747Z,98521.98
2018-04-30T06:28:31.679Z,98520.91
2018-04-30T06:31:00.477Z,98521.98
2018-04-30T06:33:29.187Z,98531.03
2018-04-30T06:35:58.125Z,98531.92
2018-04-30T06:38:26.892Z,98537.29
2018-04-30T06:40:56.032Z,98535.80
2018-04-30T06:43:25.065Z,98533.09
2018-04-30T06:45:53.849Z,98533.98
2018-04-30T06:48:23.896Z,98537.98
2018-04-30T06:50:55.019Z,98544.33
2018-04-30T06:53:25.056Z,98541.24
2018-04-30T06:55:54.024Z,98537.22
2018-04-30T06:58:23.022Z,98541.30
2018-04-30T07:00:51.953Z,98546.76
2018-04-30T07:03:20.974Z,98543.23
2018-04-30T07:05:50.622Z,98550.04
2018-04-30T07:08:19.484Z,98549.91
2018-04-30T07:10:48.310Z,98543.02
2018-04-30T07:13:16.995Z,98544.64
2018-04-30T07:15:46.606Z,98543.76
2018-04-30T07:18:16.508Z,98545.41
2018-04-30T07:20:45.738Z,98548.26
2018-04-30T07:23:16.444Z,98546.84
2018-04-30T07:25:45.452Z,98543.62
2018-04-30T07:28:15.402Z,98545.38
2018-04-30T07:30:44.140Z,98538.98
2018-04-30T07:33:12.891Z,98544.30
2018-04-30T07:35:41.846Z,98543.73
2018-04-30T07:38:10.953Z,98542.69
2018-04-30T07:40:39.634Z,98545.66
2018-04-30T07:43:08.457Z,98543.85
2018-04-30T07:45:37.833Z,98546.87
2018-04-30T07:48:07.569Z,98553.73
2018-04-30T07:50:38.016Z,98549.18
2018-04-30T07:53:07.589Z,98549.48
2018-04-30T07:55:36.514Z,98558.46
2018-04-30T07:58:05.499Z,98555.18
2018-04-30T08:00:34.806Z,98548.80
2018-04-30T08:03:04.733Z,98553.33
2018-04-30T08:05:34.787Z,98559.02
2018-04-30T08:08:06.382Z,98558.18
2018-04-30T08:10:35.590Z,98560.78
2018-04-30T08:13:05.290Z,98561.58
2018-04-30T08:15:35.713Z,98558.68
2018-04-30T08:18:06.579Z,98558.27
2018-04-30T08:20:36.134Z,98560.05
2018-04-30T08:23:06.712Z,98556.67
2018-04-30T08:25:35.561Z,98554.28
2018-04-30T08:28:04.605Z,98557.47
2018-04-30T08:30:34.571Z,98561.59
2018-04-30T08:33:03.456Z,98565.70
2018-04-30T08:35:33.802Z,98569.55
2018-04-30T08:38:03.957Z,98565.67
2018-04-30T08:40:33.675Z,98563.53
2018-04-30T08:43:02.795Z,98556.20
2018-04-30T08:45:31.631Z,98556.41
2018-04-30T08:48:00.556Z,98565.37
2018-04-30T08:50:29.453Z,98556.11
2018-04-30T08:52:58.567Z,98560.48
2018-04-30T08:55:27.614Z,98559.81
2018-04-30T08:57:56.362Z,98562.95
2018-04-30T09:00:26.231Z,98560.43
2018-04-30T09:02:55.149Z,98559.59
2018-04-30T09:05:26.469Z,98558.88
2018-04-30T09:07:56.093Z,98564.36
2018-04-30T09:10:25.881Z,98559.98
2018-04-30T09:12:55.343Z,98565.66
2018-04-30T09:15:24.204Z,98568.78
2018-04-30T09:17:53.507Z,98562.97
2018-04-30T09:20:22.853Z,98558.80
2018-04-30T09:22:51.666Z,98565.97
2018-04-30T09:25:20.961Z,98572.94
2018-04-30T09:27:50.099Z,98577.63
2018-04-30T09:30:19.065Z,98571.38
2018-04-30T09:32:49.017Z,98570.46
2018-04-30T09:35:18.832Z,98577.11
2018-04-30T09:37:48.898Z,98568.78
2018-04-30T09:40:17.670Z,98567.55
2018-04-30T09:42:46.390Z,98564.99
2018-04-30T09:45:17.111Z,98568.25
2018-04-30T09:47:46.967Z,98567.31
2018-04-30T09:50:15.607Z,98571.30
2018-04-30T09:52:44.444Z,98579.44
2018-04-30T09:55:13.438Z,98584.84
2018-04-30T09:57:42.324Z,98568.34
2018-04-30T10:00:11.933Z,98580.70
2018-04-30T10:02:41.082Z,98576.61
2018-04-30T10:05:10.727Z,98575.51
2018-04-30T10:07:39.623Z,98571.48
2018-04-30T10:10:09.218Z,98571.91
2018-04-30T10:12:38.183Z,98574.66
2018-04-30T10:15:09.220Z,98568.92
2018-04-30T10:17:39.768Z,98568.14
2018-04-30T10:20:08.729Z,98568.75
2018-04-30T10:22:37.589Z,98573.36
2018-04-30T10:25:06.410Z,98573.81
2018-04-30T10:27:36.281Z,98568.63
2018-04-30T10:30:07.406Z,98572.25
2018-04-30T10:32:38.498Z,98571.45
2018-04-30T10:35:08.944Z,98566.16
2018-04-30T10:37:39.090Z,98566.99
2018-04-30T10:40:10.203Z,98559.41
2018-04-30T10:42:41.231Z,98559.31
2018-04-30T10:45:10.850Z,98566.42
2018-04-30T10:47:41.123Z,98563.25
2018-04-30T10:50:12.078Z,98562.72
2018-04-30T10:52:43.429Z,98564.72
2018-04-30T10:55:13.354Z,98558.56
2018-04-30T10:57:43.062Z,98552.59
2018-04-30T11:00:12.630Z,98544.36
2018-04-30T11:02:42.778Z,98552.43
2018-04-30T11:05:12.489Z,98547.15
2018-04-30T11:07:43.240Z,98554.45
2018-04-30T11:10:12.547Z,98559.05
2018-04-30T11:12:42.060Z,98554.38
2018-04-30T11:15:11.538Z,98560.25
2018-04-30T11:17:41.459Z,98569.38
2018-04-30T11:20:10.595Z,98563.70
2018-04-30T11:22:39.585Z,98574.58
2018-04-30T11:25:08.429Z,98573.73
2018-04-30T11:27:38.153Z,98567.31
2018-04-30T11:30:07.662Z,98563.70
2018-04-30T11:32:36.820Z,98561.23
2018-04-30T11:35:05.636Z,98563.42
2018-04-30T11:37:34.300Z,98565.27
2018-04-30T11:40:04.169Z,98563.44
2018-04-30T11:42:32.939Z,98561.30
2018-04-30T11:45:03.133Z,98564.23
2018-04-30T11:47:33.390Z,98565.49
2018-04-30T11:50:02.116Z,98572.70
2018-04-30T11:52:30.995Z,98565.71
2018-04-30T11:54:59.682Z,98564.19
2018-04-30T11:57:28.375Z,98562.11
2018-04-30T11:59:57.187Z,98559.32
2018-04-30T12:02:26.094Z,98555.02
2018-04-30T12:04:55.139Z,98561.88
2018-04-30T12:07:23.755Z,98561.13
2018-04-30T12:09:52.515Z,98559.98
2018-04-30T12:12:22.048Z,98566.52
2018-04-30T12:14:51.622Z,98552.02
2018-04-30T12:17:20.888Z,98553.30
2018-04-30T12:19:51.281Z,98544.41
2018-04-30T12:22:20.237Z,98539.91
2018-04-30T12:24:49.183Z,98536.05
2018-04-30T12:27:17.970Z,98531.53
2018-04-30T12:29:47.020Z,98526.65
2018-04-30T12:32:15.795Z,98527.84
2018-04-30T12:34:45.742Z,98526.39
2018-04-30T12:37:14.590Z,98521.95
2018-04-30T12:39:43.571Z,98513.73
2018-04-30T12:42:12.372Z,98507.34
2018-04-30T12:44:41.372Z,98515.48
2018-04-30T12:47:11.425Z,98511.77
2018-04-30T12:49:40.805Z,98518.88
2018-04-30T12:52:09.520Z,98516.95
2018-04-30T12:54:38.288Z,98521.39
2018-04-30T12:57:07.021Z,98522.80
2018-04-30T12:59:36.059Z,98525.50
2018-04-30T13:02:05.396Z,98522.83
2018-04-30T13:04:34.437Z,98516.61
2018-04-30T13:07:05.482Z,98519.66
2018-04-30T13:09:35.692Z,98507.90
2018-04-30T13:12:05.241Z,98505.53
2018-04-30T13:14:36.354Z,98507.75
2018-04-30T13:17:07.807Z,98500.16
2018-04-30T13:19:36.717Z,98492.98
2018-04-30T13:22:05.416Z,98495.86
2018-04-30T13:24:34.818Z,98499.66
2018-04-30T13:27:04.022Z,98496.88
2018-04-30T13:29:32.739Z,98502.13
2018-04-30T13:32:04.901Z,98506.81
2018-04-30T13:34:36.802Z,98504.84
2018-04-30T13:37:06.718Z,98505.50
2018-04-30T13:39:37.070Z,98498.11
2018-04-30T13:42:06.192Z,98486.88
2018-04-30T13:44:37.951Z,98489.05
2018-04-30T13:47:08.800Z,98493.47
2018-04-30T13:49:37.912Z,98497.63
2018-04-30T13:52:06.846Z,98490.22
2018-04-30T13:54:40.392Z,98487.38
2018-04-30T13:57:11.556Z,98478.66
2018-04-30T13:59:44.405Z,98472.44
2018-04-30T14:02:15.116Z,98468.94
2018-04-30T14:04:43.947Z,98470.20
2018-04-30T14:07:13.565Z,98474.30
2018-04-30T14:09:43.132Z,98471.13
2018-04-30T14:12:14.052Z,98465.06
2018-04-30T14:14:48.272Z,98468.70
2018-04-30T14:17:17.769Z,98466.83
2018-04-30T14:19:47.901Z,98466.82
2018-04-30T14:22:16.974Z,98471.03
2018-04-30T14:24:47.081Z,98468.41
2018-04-30T14:27:16.780Z,98467.32
2018-04-30T14:29:48.059Z,98475.43
2018-04-30T14:32:17.002Z,98480.86
2018-04-30T14:34:45.760Z,98466.16
2018-04-30T14:37:15.300Z,98468.10
2018-04-30T14:39:44.363Z,98468.48
2018-04-30T14:42:13.477Z,98465.36
2018-04-30T14:44:43.620Z,98454.17
2018-04-30T14:47:14.507Z,98460.86
2018-04-30T14:49:43.607Z,98464.89
2018-04-30T14:52:12.928Z,98472.52
2018-04-30T14:54:41.687Z,98482.12
2018-04-30T14:57:10.391Z,98478.81
2018-04-30T14:59:38.974Z,98476.81
2018-04-30T15:02:07.969Z,98476.07
2018-04-30T15:04:37.130Z,98474.03
2018-04-30T15:07:07.133Z,98471.91
2018-04-30T15:09:36.065Z,98474.80
2018-04-30T15:12:06.517Z,98472.59
2018-04-30T15:14:37.332Z,98468.89
2018-04-30T15:17:07.764Z,98471.94
2018-04-30T15:19:37.535Z,98480.81
2018-04-30T15:22:07.234Z,98475.05
2018-04-30T15:24:36.818Z,98473.89
2018-04-30T15:27:07.778Z,98464.94
2018-04-30T15:29:36.818Z,98471.41
2018-04-30T15:32:06.202Z,98455.92
2018-04-30T15:34:36.295Z,98446.99
2018-04-30T15:37:06.340Z,98440.61
2018-04-30T15:39:36.569Z,98442.02
2018-04-30T15:42:05.478Z,98442.86
2018-04-30T15:44:35.015Z,98450.48
2018-04-30T15:47:04.814Z,98451.73
2018-04-30T15:49:33.544Z,98457.00
2018-04-30T15:52:02.709Z,98455.63
2018-04-30T15:54:33.440Z,98461.56
2018-04-30T15:57:02.955Z,98462.45
2018-04-30T15:59:33.104Z,98459.22
2018-04-30T16:02:02.365Z,98454.01
2018-04-30T16:04:32.215Z,98458.45
2018-04-30T16:07:01.826Z,98470.03
2018-04-30T16:09:31.569Z,98481.86
2018-04-30T16:12:00.652Z,98473.77
2018-04-30T16:14:29.451Z,98480.00
2018-04-30T16:16:58.540Z,98482.83
2018-04-30T16:19:28.509Z,98479.78
2018-04-30T16:21:57.492Z,98479.72
2018-04-30T16:24:26.985Z,98483.31
2018-04-30T16:26:56.171Z,98476.02
2018-04-30T16:29:25.372Z,98471.50
2018-04-30T16:31:54.598Z,98469.91
2018-04-30T16:34:24.967Z,98473.60
2018-04-30T16:36:53.923Z,98474.28
2018-04-30T16:39:23.004Z,98478.84
2018-04-30T16:41:51.807Z,98484.98
2018-04-30T16:44:20.695Z,98484.41
2018-04-30T16:46:49.491Z,98487.48
2018-04-30T16:49:19.127Z,98490.59
2018-04-30T16:51:47.874Z,98487.91
2018-04-30T16:54:16.957Z,98496.59
2018-04-30T16:56:46.869Z,98494.47
2018-04-30T16:59:15.786Z,98495.52
2018-04-30T17:01:46.000Z,98498.05
2018-04-30T17:04:16.485Z,98505.28
2018-04-30T17:06:45.531Z,98495.87
2018-04-30T17:09:14.578Z,98498.44
2018-04-30T17:11:46.769Z,98492.63
2018-04-30T17:14:15.751Z,98500.52
2018-04-30T17:16:44.539Z,98508.05
2018-04-30T17:19:13.287Z,98513.84
2018-04-30T17:21:42.404Z,98517.68
2018-04-30T17:24:11.532Z,98511.78
2018-04-30T17:26:40.438Z,98521.14
2018-04-30T17:29:09.423Z,98521.57
2018-04-30T17:31:39.068Z,98521.14
2018-04-30T17:34:08.438Z,98527.46
2018-04-30T17:36:38.209Z,98525.30
2018-04-30T17:39:07.190Z,98524.40
2018-04-30T17:41:37.151Z,98528.95
2018-04-30T17:44:06.226Z,98536.30
2018-04-30T17:46:36.539Z,98535.13
2018-04-30T17:49:06.565Z,98538.78
2018-04-30T17:51:35.304Z,98549.67
2018-04-30T17:54:05.147Z,98547.69
2018-04-30T17:56:35.887Z,98545.95
2018-04-30T17:59:07.154Z,98546.16
2018-04-30T18:01:36.397Z,98545.08
2018-04-30T18:04:06.067Z,98552.42
2018-04-30T18:06:35.757Z,98557.41
2018-04-30T18:09:06.352Z,98552.94
2018-04-30T18:11:35.218Z,98556.24
2018-04-30T18:14:04.870Z,98553.67
2018-04-30T18:16:33.560Z,98567.63
2018-04-30T18:19:03.590Z,98557.36
2018-04-30T18:21:33.263Z,98562.21
2018-04-30T18:24:04.048Z,98567.72
2018-04-30T18:26:33.611Z,98569.37
2018-04-30T18:29:03.285Z,98571.78
2018-04-30T18:31:32.208Z,98571.38
2018-04-30T18:34:00.948Z,98572.94
2018-04-30T18:36:30.591Z,98574.02
2018-04-30T18:39:00.091Z,98570.05
2018-04-30T18:41:31.204Z,98573.16
2018-04-30T18:43:59.879Z,98567.72
2018-04-30T18:46:29.527Z,98560.05
2018-04-30T18:48:59.007Z,98564.16
2018-04-30T18:51:28.169Z,98569.56
2018-04-30T18:53:57.365Z,98568.69
2018-04-30T18:56:27.225Z,98573.80
2018-04-30T18:58:56.457Z,98574.90
2018-04-30T19:01:25.420Z,98577.58
2018-04-30T19:03:55.047Z,98585.13
2018-04-30T19:06:24.134Z,98584.53
2018-04-30T19:08:53.991Z,98587.47
2018-04-30T19:11:24.262Z,98585.64
2018-04-30T19:13:53.621Z,98595.08
2018-04-30T19:16:23.625Z,98593.08
2018-04-30T19:18:54.130Z,98594.44
2018-04-30T19:21:23.532Z,98597.50
2018-04-30T19:23:52.641Z,98598.70
2018-04-30T19:26:23.374Z,98613.35
2018-04-30T19:28:53.653Z,98620.53
2018-04-30T19:31:23.677Z,98622.59
2018-04-30T19:33:53.036Z,98632.02
2018-04-30T19:36:22.981Z,98630.73
2018-04-30T19:38:52.797Z,98635.22
2018-04-30T19:41:26.363Z,98634.76
2018-04-30T19:43:59.607Z,98631.44
2018-04-30T19:46:30.499Z,98642.78
2018-04-30T19:49:01.641Z,98645.41
2018-04-30T19:51:32.745Z,98652.91
2018-04-30T19:54:03.932Z,98646.13
2018-04-30T19:56:34.152Z,98648.27
2018-04-30T19:59:04.935Z,98656.56
2018-04-30T20:01:35.313Z,98660.63
2018-04-30T20:04:04.675Z,98660.50
2018-04-30T20:06:34.885Z,98665.40
2018-04-30T20:09:05.992Z,98668.14
2018-04-30T20:11:35.211Z,98675.95
2018-04-30T20:14:09.656Z,98671.64
2018-04-30T20:16:40.063Z,98661.73
2018-04-30T20:19:10.177Z,98646.34
2018-04-30T20:21:40.285Z,98643.77
2018-04-30T20:24:09.672Z,98650.28
2018-04-30T20:26:39.553Z,98657.54
2018-04-30T20:29:10.137Z,98660.96
2018-04-30T20:31:39.725Z,98663.55
2018-04-30T20:34:09.082Z,98667.98
2018-04-30T20:36:37.722Z,98669.41
2018-04-30T20:39:07.375Z,98674.98
2018-04-30T20:41:40.100Z,98691.50
2018-04-30T20:44:10.209Z,98698.39
2018-04-30T20:46:39.252Z,98699.19
2018-04-30T20:49:08.254Z,98699.34
2018-04-30T20:51:37.667Z,98693.81
2018-04-30T20:54:06.950Z,98686.38
2018-04-30T20:56:36.705Z,98700.34
2018-04-30T20:59:05.602Z,98696.88
2018-04-30T21:01:35.992Z,98684.59
2018-04-30T21:04:05.535Z,98674.53
2018-04-30T21:06:34.487Z,98686.75
2018-04-30T21:09:14.977Z,98679.14
2018-04-30T21:11:43.758Z,98686.50
2018-04-30T21:14:13.198Z,98696.27
2018-04-30T21:16:42.111Z,98689.20
2018-04-30T21:19:12.452Z,98689.63
2018-04-30T21:21:42.017Z,98678.12
2018-04-30T21:24:10.928Z,98686.09
2018-04-30T21:26:41.114Z,98691.56
2018-04-30T21:29:10.776Z,98694.68
2018-04-30T21:31:40.417Z,98698.42
2018-04-30T21:34:09.460Z,98695.09
2018-04-30T21:36:38.294Z,98700.63
2018-04-30T21:39:07.006Z,98696.55
2018-04-30T21:41:35.662Z,98705.83
2018-04-30T21:44:04.433Z,98698.28
2018-04-30T21:46:33.212Z,98695.02
2018-04-30T21:49:01.925Z,98698.04
2018-04-30T21:51:30.743Z,98691.53
2018-04-30T21:53:59.442Z,98700.78
2018-04-30T21:56:28.511Z,98700.48
2018-04-30T21:58:57.406Z,98695.13
2018-04-30T22:01:26.350Z,98684.27
2018-04-30T22:03:56.378Z,98678.06
2018-04-30T22:06:25.585Z,98677.80
2018-04-30T22:08:54.355Z,98668.72
2018-04-30T22:11:23.975Z,98663.73
2018-04-30T22:13:53.723Z,98667.10
2018-04-30T22:16:22.578Z,98667.83
2018-04-30T22:18:51.974Z,98666.63
2018-04-30T22:21:21.449Z,98670.62
2018-04-30T22:23:50.857Z,98667.97
2018-04-30T22:26:19.691Z,98671.22
2018-04-30T22:28:48.360Z,98672.61
2018-04-30T22:31:17.355Z,98683.58
2018-04-30T22:33:47.413Z,98673.91
2018-04-30T22:36:16.381Z,98670.11
2018-04-30T22:38:45.116Z,98676.52
2018-04-30T22:41:14.020Z,98673.14
2018-04-30T22:43:43.746Z,98676.38
2018-04-30T22:46:12.477Z,98669.33
2018-04-30T22:48:41.344Z,98664.17
2018-04-30T22:51:10.162Z,98667.87
2018-04-30T22:53:39.256Z,98667.53
2018-04-30T22:56:08.071Z,98665.52
2018-04-30T22:58:36.817Z,98664.11
2018-04-30T23:01:06.794Z,98660.29
2018-04-30T23:03:36.142Z,98665.69
2018-04-30T23:06:05.204Z,98652.81
2018-04-30T23:08:34.303Z,98645.38
2018-04-30T23:11:03.691Z,98643.08
2018-04-30T23:13:32.421Z,98643.89
2018-04-30T23:16:01.180Z,98643.16
2018-04-30T23:18:29.796Z,98653.41
2018-04-30T23:20:58.446Z,98650.59
2018-04-30T23:23:27.313Z,98654.30
2018-04-30T23:25:56.111Z,98658.72
2018-04-30T23:28:24.716Z,98660.62
2018-04-30T23:30:53.481Z,98668.56
2018-04-30T23:33:22.165Z,98664.20
2018-04-30T23:35:51.425Z,98659.92
2018-04-30T23:38:21.623Z,98654.67
2018-04-30T23:40:50.934Z,98653.64
2018-04-30T23:43:19.798Z,98646.41
2018-04-30T23:45:49.358Z,98635.89
2018-04-30T23:48:17.996Z,98636.56
2018-04-30T23:50:46.759Z,98626.01
2018-04-30T23:53:15.556Z,98621.86
2018-04-30T23:55:45.045Z,98612.61
2018-04-30T23:58:13.732Z,98612.08
